Time;durP1;ratioP1;P1;durP2;ratioP2;P2;SDS_P1;SDS_P2;PMS_P1;PMS_P2;Temp;Humidity;BMP_temperature;BMP_pressure;BME280_temperature;BME280_humidity;BME280_pressure;Samples;Min_cycle;Max_cycle;Signal;HPM_P1;HPM_P2
2021/07/29 00:02:10;;;;;;;14.32;9.00;;;;;;;24.43;72.12;99830.22;4955650;28;20051;-79
2021/07/29 00:04:37;;;;;;;15.38;9.30;;;;;;;24.15;73.32;99824.53;4955515;29;20044;-77
2021/07/29 00:07:04;;;;;;;22.02;9.52;;;;;;;24.26;72.60;99820.63;4955210;29;20043;-77
2021/07/29 00:09:32;;;;;;;17.85;8.77;;;;;;;24.18;73.10;99816.19;4955100;28;20111;-77
2021/07/29 00:11:58;;;;;;;12.82;7.90;;;;;;;24.24;72.57;99820.00;4937319;29;20043;-78
2021/07/29 00:14:28;;;;;;;12.40;8.45;;;;;;;24.23;72.40;99810.31;4937891;29;20174;-77
2021/07/29 00:16:59;;;;;;;16.88;9.35;;;;;;;24.17;72.77;99813.69;4954676;29;20098;-78
2021/07/29 00:19:26;;;;;;;16.08;10.05;;;;;;;24.21;72.23;99807.00;4954777;29;20054;-79
2021/07/29 00:21:53;;;;;;;18.95;8.60;;;;;;;24.27;72.26;99816.97;4954164;29;20047;-78
2021/07/29 00:24:24;;;;;;;14.90;8.73;;;;;;;24.24;72.08;99812.84;4955165;28;20065;-78
2021/07/29 00:26:51;;;;;;;14.57;8.63;;;;;;;24.22;71.79;99811.34;4937406;29;20149;-79
2021/07/29 00:29:18;;;;;;;19.65;9.18;;;;;;;24.35;70.94;99808.97;4953853;28;20546;-80
2021/07/29 00:31:44;;;;;;;10.15;7.60;;;;;;;24.33;71.17;99805.59;4954933;29;20043;-77
2021/07/29 00:34:11;;;;;;;17.23;9.20;;;;;;;24.10;71.86;99802.91;4954519;28;20403;-77
2021/07/29 00:36:38;;;;;;;22.15;10.00;;;;;;;24.02;72.28;99801.13;4955142;29;20058;-77
2021/07/29 00:39:05;;;;;;;11.23;8.90;;;;;;;23.88;72.86;99799.19;4954256;28;20376;-79
2021/07/29 00:41:32;;;;;;;18.42;8.80;;;;;;;23.84;72.56;99795.22;4954690;29;20050;-79
2021/07/29 00:44:04;;;;;;;12.82;8.00;;;;;;;23.87;71.93;99800.22;4954325;28;20050;-79
2021/07/29 00:46:32;;;;;;;12.18;8.15;;;;;;;23.86;71.94;99800.34;4954517;28;20051;-79
2021/07/29 00:49:04;;;;;;;17.63;7.88;;;;;;;23.85;71.47;99804.84;4954353;29;20094;-79
2021/07/29 00:51:33;;;;;;;12.43;9.13;;;;;;;23.71;72.01;99795.78;4954431;29;20047;-79
2021/07/29 00:54:01;;;;;;;11.63;8.38;;;;;;;23.75;71.77;99790.91;4954149;28;20099;-78
2021/07/29 00:56:29;;;;;;;12.68;8.35;;;;;;;23.78;71.65;99787.94;4954413;29;20043;-78
2021/07/29 00:58:56;;;;;;;9.15;7.85;;;;;;;23.77;71.09;99791.59;4954527;29;20035;-78
2021/07/29 01:01:23;;;;;;;10.85;7.95;;;;;;;23.73;71.72;99793.75;4954048;29;20039;-78
2021/07/29 01:03:50;;;;;;;12.38;7.72;;;;;;;23.66;72.29;99794.63;4954232;28;20043;-78
2021/07/29 01:06:17;;;;;;;15.20;7.50;;;;;;;23.58;72.61;99794.63;4956985;29;20043;-78
2021/07/29 01:09:01;;;;;;;12.75;8.07;;;;;;;23.49;72.84;99797.31;4956169;29;20045;-77
2021/07/29 01:11:28;;;;;;;;;;;;;;;23.56;72.52;99796.63;4954334;29;20522;-78
2021/07/29 01:13:55;;;;;;;14.40;7.55;;;;;;;23.67;71.60;99785.66;4954153;28;19923;-78
2021/07/29 01:16:24;;;;;;;12.63;7.25;;;;;;;23.69;71.21;99789.78;4953894;28;20043;-78
2021/07/29 01:18:51;;;;;;;16.15;7.43;;;;;;;23.63;71.18;99781.66;4954458;29;20055;-77
2021/07/29 01:21:18;;;;;;;13.98;9.05;;;;;;;23.78;69.95;99787.94;4953988;29;20047;-77
2021/07/29 01:23:45;;;;;;;10.90;6.80;;;;;;;23.81;69.26;99781.41;4954536;28;20059;-78
2021/07/29 01:26:12;;;;;;;16.17;7.95;;;;;;;23.76;69.14;99789.94;4937138;29;20039;-77
2021/07/29 01:28:39;;;;;;;13.18;6.50;;;;;;;23.77;69.21;99794.25;4957630;28;20039;-77
2021/07/29 01:31:06;;;;;;;19.15;7.68;;;;;;;23.90;68.45;99797.19;4957779;28;20097;-77
2021/07/29 01:33:33;;;;;;;13.90;8.48;;;;;;;23.91;68.23;99800.66;4957631;28;20047;-77
2021/07/29 01:35:59;;;;;;;20.45;8.38;;;;;;;23.86;68.02;99792.38;4957844;28;20470;-77
2021/07/29 01:38:26;;;;;;;20.05;9.88;;;;;;;23.83;68.27;99792.75;4957475;28;20122;-77
2021/07/29 01:40:53;;;;;;;15.25;7.15;;;;;;;23.86;67.37;99790.53;4940808;29;20039;-78
2021/07/29 01:43:20;;;;;;;13.95;6.95;;;;;;;23.78;67.86;99793.25;4957463;28;20035;-78
2021/07/29 01:45:47;;;;;;;12.18;7.70;;;;;;;23.72;67.61;99793.94;4957608;29;20046;-78
2021/07/29 01:48:14;;;;;;;10.52;6.22;;;;;;;23.69;67.75;99789.78;4957519;29;20387;-77
2021/07/29 01:50:43;;;;;;;13.45;7.93;;;;;;;23.77;67.47;99791.59;4957421;29;20149;-78
2021/07/29 01:53:10;;;;;;;11.18;7.13;;;;;;;23.79;67.38;99790.41;4957658;29;20069;-77
2021/07/29 01:55:47;;;;;;;8.20;6.07;;;;;;;23.74;67.53;99792.75;4919169;29;20500;-78
2021/07/29 01:58:15;;;;;;;16.25;6.45;;;;;;;23.74;67.91;99786.59;4919686;29;20044;-77
2021/07/29 02:00:45;;;;;;;10.57;6.97;;;;;;;23.68;68.08;99785.47;4919233;29;20044;-77
2021/07/29 02:03:12;;;;;;;15.40;7.43;;;;;;;23.76;67.70;99790.78;4919468;29;20515;-77
2021/07/29 02:05:39;;;;;;;9.00;7.15;;;;;;;23.87;67.37;99789.56;4919158;29;20032;-78
2021/07/29 02:08:06;;;;;;;11.05;6.63;;;;;;;23.82;67.45;99799.06;4919295;29;20044;-78
2021/07/29 02:10:33;;;;;;;13.52;7.45;;;;;;;23.92;67.19;99797.84;4918940;29;20041;-77
2021/07/29 02:13:03;;;;;;;14.63;7.18;;;;;;;23.91;67.56;99804.16;4919236;29;20399;-77
2021/07/29 02:15:30;;;;;;;13.98;6.60;;;;;;;23.79;67.92;99798.41;4918759;29;20040;-77
2021/07/29 02:17:58;;;;;;;8.85;6.32;;;;;;;23.80;68.10;99801.88;4919234;29;20052;-77
2021/07/29 02:20:26;;;;;;;7.47;5.90;;;;;;;23.66;68.40;99800.78;4919100;29;20091;-78
2021/07/29 02:22:53;;;;;;;9.57;7.30;;;;;;;23.59;68.70;99804.25;4918712;29;20387;-78
2021/07/29 02:25:20;;;;;;;11.65;7.22;;;;;;;23.63;68.63;99800.28;4918882;29;20503;-79
2021/07/29 02:27:47;;;;;;;15.88;7.68;;;;;;;23.47;69.35;99793.16;4918831;29;20115;-78
2021/07/29 02:30:14;;;;;;;11.70;7.43;;;;;;;23.35;70.58;99813.16;4919063;29;20044;-79
2021/07/29 02:32:41;;;;;;;20.98;9.27;;;;;;;23.07;73.58;99807.38;4917997;29;20452;-78
2021/07/29 02:35:08;;;;;;;12.50;9.18;;;;;;;22.92;75.64;99805.38;4918710;29;20040;-79
2021/07/29 02:37:35;;;;;;;17.42;10.90;;;;;;;22.74;77.28;99805.53;4918079;29;20487;-79
2021/07/29 02:40:02;;;;;;;16.02;11.25;;;;;;;22.63;78.74;99802.34;4918949;29;20048;-78
2021/07/29 02:42:29;;;;;;;19.63;10.75;;;;;;;22.84;77.48;99801.84;4918350;29;20047;-79
2021/07/29 02:44:56;;;;;;;14.20;10.43;;;;;;;22.79;77.91;99818.28;4918382;29;20076;-79
2021/07/29 02:47:22;;;;;;;18.23;11.80;;;;;;;22.81;77.42;99810.19;4918279;29;20111;-78
2021/07/29 02:49:49;;;;;;;14.93;9.98;;;;;;;22.94;76.33;99811.34;4918373;29;20551;-79
2021/07/29 02:52:16;;;;;;;12.88;9.18;;;;;;;23.03;75.36;99806.06;4918407;29;20052;-78
2021/07/29 02:54:44;;;;;;;16.63;9.45;;;;;;;23.21;73.84;99812.00;4941973;28;20054;-79
2021/07/29 02:57:10;;;;;;;11.02;7.75;;;;;;;23.16;71.50;99806.34;4956392;29;20043;-79
2021/07/29 02:59:37;;;;;;;11.85;7.43;;;;;;;23.25;70.50;99808.84;4956061;28;20031;-79
2021/07/29 03:02:04;;;;;;;14.80;7.60;;;;;;;23.28;70.52;99810.34;4956324;28;20442;-77
2021/07/29 03:04:31;;;;;;;8.18;6.38;;;;;;;23.26;70.26;99807.00;4938657;29;20466;-77
2021/07/29 03:06:59;;;;;;;16.48;8.57;;;;;;;23.34;70.08;99814.97;4956234;28;20043;-77
2021/07/29 03:09:26;;;;;;;10.77;6.93;;;;;;;23.32;69.60;99827.59;4956115;29;20051;-77
2021/07/29 03:11:53;;;;;;;11.13;7.03;;;;;;;23.35;69.65;99826.44;4956428;29;20149;-77
2021/07/29 03:14:19;;;;;;;15.85;6.60;;;;;;;23.36;69.92;99823.59;4956107;29;20052;-77
2021/07/29 03:16:46;;;;;;;16.48;7.32;;;;;;;23.26;70.10;99822.97;4955664;28;20043;-77
2021/07/29 03:19:13;;;;;;;10.75;6.70;;;;;;;23.23;70.03;99821.47;4938727;29;20047;-76
2021/07/29 03:21:40;;;;;;;10.15;6.43;;;;;;;23.33;69.39;99825.75;4955723;29;20094;-76
2021/07/29 03:24:07;;;;;;;10.00;7.07;;;;;;;23.26;69.45;99829.09;4939016;29;20553;-77
2021/07/29 03:26:34;;;;;;;9.52;7.10;;;;;;;23.29;69.37;99827.94;4955143;28;20044;-77
2021/07/29 03:29:00;;;;;;;12.73;7.53;;;;;;;23.27;69.73;99837.91;4955720;29;20043;-76
2021/07/29 03:31:27;;;;;;;9.13;7.05;;;;;;;23.16;69.93;99830.28;4955486;29;20036;-77
2021/07/29 03:33:54;;;;;;;11.50;7.55;;;;;;;23.29;70.23;99833.28;4955845;28;20055;-77
2021/07/29 03:36:21;;;;;;;14.18;7.30;;;;;;;23.21;69.82;99834.09;4956087;29;20047;-76
2021/07/29 03:38:48;;;;;;;14.68;6.95;;;;;;;23.30;69.57;99828.78;4955525;29;20039;-76
2021/07/29 03:41:14;;;;;;;15.45;8.48;;;;;;;23.24;69.84;99832.94;4955658;29;20039;-76
2021/07/29 03:43:41;;;;;;;13.85;9.15;;;;;;;23.29;69.67;99841.25;4938359;29;20047;-76
2021/07/29 03:46:09;;;;;;;10.88;7.35;;;;;;;23.33;68.69;99836.41;4955604;28;20054;-76
2021/07/29 03:48:36;;;;;;;12.60;6.85;;;;;;;23.26;69.14;99841.56;4955121;29;20044;-76
2021/07/29 03:51:03;;;;;;;8.73;6.47;;;;;;;23.22;69.29;99842.91;4954698;28;20047;-77
2021/07/29 03:53:30;;;;;;;10.93;6.55;;;;;;;23.16;69.84;99852.38;4955119;28;20098;-76
2021/07/29 03:55:56;;;;;;;11.68;7.07;;;;;;;23.04;70.64;99850.22;4955304;28;20047;-77
2021/07/29 03:58:23;;;;;;;12.88;7.93;;;;;;;23.14;70.70;99856.22;4955152;29;20103;-77
2021/07/29 04:00:50;;;;;;;14.38;8.05;;;;;;;23.03;70.71;99856.56;4955217;29;20050;-76
2021/07/29 04:03:17;;;;;;;9.98;7.13;;;;;;;22.80;72.49;99856.31;4955147;28;20053;-77
2021/07/29 04:05:44;;;;;;;13.15;8.75;;;;;;;22.84;73.37;99861.16;4955312;29;20055;-76
2021/07/29 04:08:10;;;;;;;18.48;11.55;;;;;;;23.35;72.41;99859.19;4955334;28;20043;-76
2021/07/29 04:10:37;;;;;;;17.88;11.45;;;;;;;23.13;73.14;99863.38;4954498;28;20043;-76
2021/07/29 04:13:04;;;;;;;14.23;12.27;;;;;;;22.98;74.21;99871.16;4955157;29;20039;-77
2021/07/29 04:15:30;;;;;;;14.48;11.02;;;;;;;23.07;73.89;99873.84;4954751;29;20043;-77
2021/07/29 04:18:00;;;;;;;15.52;10.40;;;;;;;23.10;73.74;99868.16;4954758;28;20102;-77
2021/07/29 04:20:27;;;;;;;24.33;12.57;;;;;;;22.99;74.36;99870.16;4955039;28;20039;-77
2021/07/29 04:22:53;;;;;;;13.20;10.35;;;;;;;23.17;73.55;99867.34;4955064;28;20538;-76
2021/07/29 04:25:21;;;;;;;11.93;9.52;;;;;;;23.03;74.18;99869.84;4952138;28;20090;-78
2021/07/29 04:27:52;;;;;;;12.38;8.65;;;;;;;23.12;73.84;99871.50;4930680;29;20049;-78
2021/07/29 04:30:19;;;;;;;16.65;10.68;;;;;;;23.08;73.87;99880.81;4933349;28;20500;-78
2021/07/29 04:32:46;;;;;;;15.77;10.95;;;;;;;23.07;74.19;99877.31;4953446;28;20039;-78
2021/07/29 04:35:12;;;;;;;12.45;9.82;;;;;;;23.12;73.72;99879.50;4951717;28;20043;-78
2021/07/29 04:37:39;;;;;;;14.88;10.48;;;;;;;23.08;74.29;99870.19;4950308;28;20490;-77
2021/07/29 04:40:06;;;;;;;15.85;12.10;;;;;;;23.27;73.69;99877.78;4952574;28;20043;-77
2021/07/29 04:42:33;;;;;;;13.27;10.55;;;;;;;23.39;72.63;99871.16;4951583;28;20090;-76
2021/07/29 04:45:00;;;;;;;19.45;11.57;;;;;;;23.19;74.01;99880.47;4950570;28;20520;-76
2021/07/29 04:47:27;;;;;;;16.73;11.75;;;;;;;23.38;73.29;99888.09;4951533;28;20039;-77
2021/07/29 04:49:54;;;;;;;20.20;11.50;;;;;;;23.33;73.60;99885.13;4952774;28;20050;-77
2021/07/29 04:52:21;;;;;;;16.50;10.63;;;;;;;23.45;72.90;99881.13;4950963;28;20039;-76
2021/07/29 04:54:48;;;;;;;14.52;10.27;;;;;;;23.23;73.63;99882.63;4951511;28;20063;-77
2021/07/29 04:57:14;;;;;;;16.10;10.57;;;;;;;23.30;73.98;99885.44;4952216;28;20040;-78
2021/07/29 04:59:41;;;;;;;21.85;11.77;;;;;;;23.48;73.20;99878.09;4950366;28;20031;-78
2021/07/29 05:02:08;;;;;;;25.27;13.50;;;;;;;23.66;72.39;99879.78;4952295;28;20103;-78
2021/07/29 05:04:35;;;;;;;15.85;11.00;;;;;;;23.46;73.33;99881.94;4952517;28;20035;-78
2021/07/29 05:07:03;;;;;;;19.55;9.95;;;;;;;23.40;74.34;99887.94;4952311;28;20063;-77
2021/07/29 05:09:30;;;;;;;14.32;10.57;;;;;;;23.21;75.34;99881.13;4951370;28;20043;-78
2021/07/29 05:12:00;;;;;;;18.63;13.25;;;;;;;23.72;73.59;99887.09;4951755;28;20047;-75
2021/07/29 05:14:27;;;;;;;18.15;12.30;;;;;;;23.61;74.37;99888.25;4951470;28;20047;-75
2021/07/29 05:16:54;;;;;;;17.42;12.57;;;;;;;23.65;73.52;99888.75;4951391;28;20051;-73
2021/07/29 05:19:20;;;;;;;17.98;12.93;;;;;;;23.60;74.33;99893.75;4934096;28;20098;-76
2021/07/29 05:21:47;;;;;;;17.50;12.77;;;;;;;23.65;74.41;99888.75;4935285;28;20043;-76
2021/07/29 05:24:14;;;;;;;15.88;12.50;;;;;;;23.59;73.90;99895.53;4951663;28;20408;-76
2021/07/29 05:26:42;;;;;;;14.57;12.88;;;;;;;23.62;73.89;99894.41;4951091;28;20166;-76
2021/07/29 05:29:09;;;;;;;18.20;14.02;;;;;;;23.77;73.76;99893.56;4948369;28;20047;-75
2021/07/29 05:31:41;;;;;;;18.90;13.60;;;;;;;24.02;72.50;99890.81;4951920;28;20395;-76
2021/07/29 05:34:09;;;;;;;24.98;14.77;;;;;;;24.30;71.52;99883.22;4949478;28;20133;-77
2021/07/29 05:36:37;;;;;;;19.98;15.93;;;;;;;24.19;72.08;99886.25;4949900;28;20517;-78
2021/07/29 05:39:04;;;;;;;21.27;16.33;;;;;;;24.33;71.96;99879.34;4950016;28;20054;-76
2021/07/29 05:41:31;;;;;;;21.63;15.95;;;;;;;24.49;71.02;99877.47;4950295;28;20050;-77
2021/07/29 05:43:58;;;;;;;20.17;17.35;;;;;;;24.42;70.63;99876.50;4930785;29;20150;-77
2021/07/29 05:46:25;;;;;;;24.52;16.30;;;;;;;24.60;69.91;99886.06;4945354;28;20062;-77
2021/07/29 05:48:52;;;;;;;21.17;16.38;;;;;;;24.44;70.59;99887.00;4951022;28;20122;-74
2021/07/29 05:51:18;;;;;;;21.85;16.83;;;;;;;25.06;67.72;99889.63;4952061;28;20065;-76
2021/07/29 05:53:45;;;;;;;21.80;16.02;;;;;;;25.21;67.33;99898.50;4934096;29;20131;-77
2021/07/29 05:56:13;;;;;;;24.60;15.93;;;;;;;25.19;67.12;99889.81;4950326;28;20554;-75
2021/07/29 05:58:41;;;;;;;26.77;16.52;;;;;;;25.73;65.41;99900.34;4945065;28;20043;-77
2021/07/29 06:01:11;;;;;;;29.13;18.98;;;;;;;25.60;65.52;99895.63;4950849;28;20052;-78
2021/07/29 06:03:38;;;;;;;36.05;19.98;;;;;;;25.44;66.44;99893.09;4951873;28;20039;-77
2021/07/29 06:06:05;;;;;;;25.98;22.23;;;;;;;25.68;64.89;99900.06;4950260;28;20049;-77
2021/07/29 06:08:31;;;;;;;30.17;24.73;;;;;;;25.73;64.29;99907.53;4953411;28;20039;-77
2021/07/29 06:11:02;;;;;;;27.27;24.27;;;;;;;25.63;65.15;99912.28;4950459;28;20051;-75
2021/07/29 06:13:29;;;;;;;29.23;20.88;;;;;;;25.64;65.21;99908.59;4948789;28;20510;-74
2021/07/29 06:15:58;;;;;;;27.20;18.92;;;;;;;26.04;63.61;99910.84;4951190;28;20100;-73
2021/07/29 06:18:25;;;;;;;23.38;15.52;;;;;;;25.86;62.98;99907.72;4954098;28;20039;-74
2021/07/29 06:20:52;;;;;;;15.30;12.88;;;;;;;26.03;62.54;99913.72;4955314;28;20050;-75
2021/07/29 06:23:19;;;;;;;17.67;13.10;;;;;;;25.79;63.04;99909.50;4955860;28;20537;-76
2021/07/29 06:25:57;;;;;;;18.90;12.23;;;;;;;26.22;61.23;99917.69;4931864;29;20047;-75
2021/07/29 06:28:31;;;;;;;16.70;12.15;;;;;;;26.10;60.91;99907.47;4949012;28;20050;-76
2021/07/29 06:30:57;;;;;;;20.17;15.57;;;;;;;26.22;60.50;99907.00;4950831;28;20120;-77
2021/07/29 06:33:24;;;;;;;21.92;13.40;;;;;;;26.27;60.46;99908.09;4956570;28;20058;-76
2021/07/29 06:36:03;;;;;;;20.67;14.18;;;;;;;26.26;60.45;99913.59;4949615;28;20127;-76
2021/07/29 06:38:37;;;;;;;18.65;13.30;;;;;;;26.16;61.02;99907.75;4955833;28;20036;-78
2021/07/29 06:41:06;;;;;;;20.40;13.40;;;;;;;26.31;59.93;99905.84;4940171;28;20042;-79
2021/07/29 06:43:36;;;;;;;16.95;13.18;;;;;;;26.18;60.80;99911.03;4962773;28;20122;-76
2021/07/29 06:46:07;;;;;;;20.75;11.15;;;;;;;26.32;59.90;99902.19;4951478;28;20070;-74
2021/07/29 06:48:34;;;;;;;14.57;10.82;;;;;;;26.64;59.26;99900.94;4954238;28;20146;-75
2021/07/29 06:51:05;;;;;;;20.48;11.60;;;;;;;26.55;59.29;99907.41;4954516;28;20047;-75
2021/07/29 06:53:35;;;;;;;21.75;11.15;;;;;;;26.37;59.83;99905.13;4954805;28;20216;-73
2021/07/29 06:56:08;;;;;;;20.42;11.55;;;;;;;26.28;60.26;99904.38;4955573;28;20098;-75
2021/07/29 06:58:35;;;;;;;22.53;11.07;;;;;;;26.44;60.34;99911.41;4955886;28;20398;-74
2021/07/29 07:01:03;;;;;;;21.02;11.52;;;;;;;26.31;60.50;99911.19;4938465;28;20046;-75
2021/07/29 07:03:31;;;;;;;18.23;12.07;;;;;;;26.05;61.37;99909.84;4954787;28;20121;-73
2021/07/29 07:06:02;;;;;;;27.88;14.25;;;;;;;26.15;61.11;99919.41;4956401;28;20078;-75
2021/07/29 07:08:29;;;;;;;23.02;12.40;;;;;;;26.16;61.30;99918.41;4955255;28;20070;-75
2021/07/29 07:10:56;;;;;;;27.25;13.85;;;;;;;26.09;60.98;99912.97;4955081;28;20094;-76
2021/07/29 07:13:23;;;;;;;17.55;11.27;;;;;;;26.04;61.84;99920.72;4954830;28;20432;-75
2021/07/29 07:15:50;;;;;;;19.55;12.15;;;;;;;26.43;61.36;99915.09;4954979;28;20099;-75
2021/07/29 07:18:16;;;;;;;17.15;13.30;;;;;;;26.12;62.07;99913.44;4955372;28;20045;-75
2021/07/29 07:20:43;;;;;;;23.95;13.00;;;;;;;26.43;61.12;99915.09;4955158;28;20087;-75
2021/07/29 07:23:10;;;;;;;21.15;12.18;;;;;;;26.18;62.56;99914.53;4955520;28;20043;-74
2021/07/29 07:25:37;;;;;;;24.45;13.90;;;;;;;26.17;62.61;99917.41;4954811;28;20054;-73
2021/07/29 07:28:04;;;;;;;21.52;13.52;;;;;;;26.21;62.68;99926.72;4954384;28;20051;-72
2021/07/29 07:30:33;;;;;;;18.15;13.02;;;;;;;26.23;62.26;99920.16;4953662;28;20053;-73
2021/07/29 07:33:01;;;;;;;21.83;12.48;;;;;;;26.38;61.77;99920.13;4947184;28;20415;-73
2021/07/29 07:35:28;;;;;;;17.75;13.60;;;;;;;26.11;62.55;99917.13;4952737;28;20463;-73
2021/07/29 07:37:55;;;;;;;19.23;11.90;;;;;;;26.36;61.58;99917.63;4953911;28;20055;-74
2021/07/29 07:40:22;;;;;;;19.63;13.98;;;;;;;26.32;61.76;99915.53;4951442;28;20043;-72
2021/07/29 07:42:50;;;;;;;17.20;13.23;;;;;;;26.00;62.54;99920.25;4949771;28;20054;-74
2021/07/29 07:45:17;;;;;;;21.63;13.75;;;;;;;26.08;62.60;99920.16;4952540;28;20058;-73
2021/07/29 07:47:44;;;;;;;19.25;11.30;;;;;;;25.77;63.00;99927.50;4951584;28;20109;-73
2021/07/29 07:50:11;;;;;;;14.45;11.32;;;;;;;25.75;63.22;99924.22;4952500;28;20090;-74
2021/07/29 07:52:37;;;;;;;15.35;11.07;;;;;;;25.87;62.39;99920.06;4936240;29;20035;-73
2021/07/29 07:55:05;;;;;;;13.95;11.13;;;;;;;26.09;61.49;99918.31;4950375;28;20059;-74
2021/07/29 07:57:32;;;;;;;14.25;9.27;;;;;;;25.88;61.91;99911.03;4946107;29;20114;-73
2021/07/29 07:59:58;;;;;;;12.20;9.48;;;;;;;25.69;61.56;99916.91;4951619;28;20040;-71
2021/07/29 08:02:26;;;;;;;18.58;10.80;;;;;;;25.73;61.39;99912.88;4950058;28;20043;-71
2021/07/29 08:04:53;;;;;;;15.27;8.57;;;;;;;26.03;60.46;99913.72;4951211;28;20621;-73
2021/07/29 08:07:20;;;;;;;13.02;10.10;;;;;;;25.78;60.69;99921.16;4952910;28;20039;-71
2021/07/29 08:09:48;;;;;;;14.70;9.85;;;;;;;25.86;60.11;99918.41;4951286;28;20059;-71
2021/07/29 08:12:15;;;;;;;20.55;9.80;;;;;;;26.12;58.87;99913.44;4952652;28;20051;-71
2021/07/29 08:14:41;;;;;;;11.68;7.70;;;;;;;26.14;58.95;99902.56;4950103;28;20047;-71
2021/07/29 08:17:08;;;;;;;15.10;8.18;;;;;;;26.19;58.71;99910.84;4950951;28;20042;-72
2021/07/29 08:19:35;;;;;;;17.67;9.27;;;;;;;26.30;58.82;99905.03;4952258;28;20403;-71
2021/07/29 08:22:02;;;;;;;13.07;8.35;;;;;;;26.22;59.16;99902.47;4952198;28;20072;-71
2021/07/29 08:24:29;;;;;;;10.10;7.47;;;;;;;26.38;58.50;99906.78;4949264;28;20396;-72
2021/07/29 08:26:57;;;;;;;15.73;7.90;;;;;;;26.36;58.70;99909.63;4951417;28;20102;-71
2021/07/29 08:29:24;;;;;;;16.25;8.48;;;;;;;26.46;58.22;99898.66;4951749;28;20038;-71
2021/07/29 08:31:51;;;;;;;16.75;8.75;;;;;;;26.42;58.28;99899.22;4952450;28;20502;-71
2021/07/29 08:34:17;;;;;;;11.40;8.43;;;;;;;26.22;58.06;99890.97;4931915;29;20142;-71
2021/07/29 08:36:44;;;;;;;14.75;8.05;;;;;;;26.26;57.56;99893.06;4951568;28;20028;-71
2021/07/29 08:39:11;;;;;;;16.33;8.77;;;;;;;26.26;56.55;99893.06;4951379;28;20040;-71
2021/07/29 08:41:40;;;;;;;14.95;8.13;;;;;;;26.21;56.95;99892.81;4952045;28;20459;-71
2021/07/29 08:44:06;;;;;;;25.15;8.15;;;;;;;26.39;56.64;99895.06;4949667;28;20039;-72
2021/07/29 08:46:35;;;;;;;17.98;10.43;;;;;;;26.29;57.01;99894.53;4935719;28;20509;-72
2021/07/29 08:49:03;;;;;;;10.82;7.50;;;;;;;26.29;56.88;99890.00;4933571;28;20028;-73
2021/07/29 08:51:30;;;;;;;18.08;8.70;;;;;;;26.36;56.45;99895.44;4951895;28;20043;-72
2021/07/29 08:53:58;;;;;;;18.52;7.65;;;;;;;26.43;56.67;99888.38;4948275;28;20546;-73
2021/07/29 08:56:24;;;;;;;15.10;8.50;;;;;;;26.64;56.01;99891.06;4948489;28;20106;-73
2021/07/29 08:58:52;;;;;;;15.32;7.72;;;;;;;26.64;55.85;99891.06;4950275;28;20050;-73
2021/07/29 09:01:19;;;;;;;10.10;9.02;;;;;;;26.46;55.69;99885.31;4950135;28;20039;-73
2021/07/29 09:03:52;;;;;;;10.80;7.55;;;;;;;26.84;55.37;99896.59;4951546;28;20139;-72
2021/07/29 09:06:19;;;;;;;15.80;7.72;;;;;;;26.59;55.51;99890.00;4947028;28;20126;-73
2021/07/29 09:08:53;;;;;;;13.15;7.95;;;;;;;26.75;55.20;99896.94;4950965;28;20047;-73
2021/07/29 09:11:36;;;;;;;10.55;7.45;;;;;;;26.80;55.46;99894.53;4953034;28;20458;-73
2021/07/29 09:14:18;;;;;;;16.17;9.98;;;;;;;26.99;55.54;99893.03;4937905;28;20126;-73
2021/07/29 09:17:01;;;;;;;16.87;9.37;;;;;;;27.00;55.09;99889.34;4950902;28;20410;-73
2021/07/29 09:19:40;;;;;;;14.65;7.95;;;;;;;27.01;55.54;99881.16;4951528;28;20050;-73
2021/07/29 09:22:20;;;;;;;9.90;8.90;;;;;;;26.91;55.34;99886.00;4951114;28;20035;-73
2021/07/29 09:25:08;;;;;;;9.23;7.57;;;;;;;27.19;55.23;99877.22;4949178;28;20520;-73
2021/07/29 09:27:37;;;;;;;11.93;7.95;;;;;;;27.28;54.99;99876.06;4948667;28;20047;-74
2021/07/29 09:30:13;;;;;;;18.85;9.50;;;;;;;27.28;54.81;99878.72;4951308;28;20050;-73
2021/07/29 09:32:50;;;;;;;21.30;8.63;;;;;;;27.27;54.99;99883.25;4949664;28;20470;-75
2021/07/29 09:35:43;;;;;;;19.30;8.38;;;;;;;27.20;54.74;99884.22;4952787;28;20490;-74
2021/07/29 09:42:22;;;;;;;14.40;10.65;;;;;;;27.04;56.11;99887.94;4952321;28;20047;-80
2021/07/29 09:44:51;;;;;;;18.55;11.75;;;;;;;27.10;56.17;99880.00;4952692;28;20044;-78
2021/07/29 09:47:19;;;;;;;14.32;11.13;;;;;;;27.25;54.90;99879.94;4953134;28;20054;-77
2021/07/29 09:49:48;;;;;;;14.13;10.07;;;;;;;27.33;55.02;99878.97;4954740;28;20043;-78
2021/07/29 09:52:15;;;;;;;14.75;9.38;;;;;;;27.29;55.19;99877.72;4959332;28;20246;-78
2021/07/29 09:54:45;;;;;;;15.48;10.07;;;;;;;27.51;54.96;99868.59;4955744;28;20051;-84
2021/07/29 09:57:12;;;;;;;19.05;10.73;;;;;;;27.46;54.58;99865.69;4958050;28;20042;-77
2021/07/29 09:59:39;;;;;;;18.15;10.90;;;;;;;27.45;54.84;99866.72;4957139;28;20042;-75
2021/07/29 10:02:07;;;;;;;19.13;12.18;;;;;;;27.47;54.62;99861.16;4955973;28;20506;-78
2021/07/29 10:04:44;;;;;;;21.60;10.48;;;;;;;27.75;53.51;99861.16;4954986;28;20036;-77
2021/07/29 10:07:19;;;;;;;19.23;9.80;;;;;;;27.77;54.00;99853.75;4954509;28;20044;-78
2021/07/29 10:09:48;;;;;;;20.00;11.52;;;;;;;27.53;54.13;99858.50;4955566;28;20120;-78
2021/07/29 10:12:21;;;;;;;19.45;10.15;;;;;;;27.84;53.53;99862.66;4938228;28;20103;-77
2021/07/29 10:14:53;;;;;;;14.40;10.03;;;;;;;27.83;53.97;99850.28;4941390;28;20161;-79
2021/07/29 10:17:35;;;;;;;16.95;11.35;;;;;;;27.75;54.15;99853.97;4953970;29;20071;-79
2021/07/29 10:20:14;;;;;;;18.02;12.52;;;;;;;27.78;54.08;99850.06;4962824;28;20038;-77
2021/07/29 10:22:42;;;;;;;15.50;11.65;;;;;;;27.72;54.51;99845.50;4968800;28;20102;-77
2021/07/29 10:25:09;;;;;;;14.57;11.13;;;;;;;27.89;54.06;99839.59;4958860;28;20182;-75
2021/07/29 10:27:36;;;;;;;17.08;10.13;;;;;;;28.12;53.56;99844.63;4954927;28;20036;-77
2021/07/29 10:30:19;;;;;;;14.15;10.75;;;;;;;27.93;53.88;99848.06;4956349;28;20035;-79
2021/07/29 10:32:50;;;;;;;12.48;11.18;;;;;;;28.05;53.87;99845.66;4955139;28;20383;-77
2021/07/29 10:35:29;;;;;;;21.58;11.65;;;;;;;28.19;53.58;99837.47;4955361;28;20465;-80
2021/07/29 10:37:57;;;;;;;21.63;10.50;;;;;;;28.24;53.31;99833.34;4953389;28;20439;-79
2021/07/29 10:40:42;;;;;;;14.98;11.55;;;;;;;28.08;53.58;99837.22;4953636;28;20483;-79
2021/07/29 10:43:24;;;;;;;15.23;9.65;;;;;;;28.06;52.61;99832.03;4953838;29;20652;-80
2021/07/29 10:45:55;;;;;;;19.27;11.88;;;;;;;27.94;53.51;99836.31;4954179;28;20046;-78
2021/07/29 10:48:40;;;;;;;14.68;12.25;;;;;;;28.01;54.12;99834.50;4954865;29;20046;-79
2021/07/29 10:51:15;;;;;;;20.45;10.48;;;;;;;28.31;53.61;99836.88;4955008;29;20494;-80
2021/07/29 10:53:50;;;;;;;20.17;12.02;;;;;;;28.28;52.69;99829.22;4956154;28;20143;-76
2021/07/29 10:56:21;;;;;;;12.13;10.82;;;;;;;28.44;52.51;99828.88;4948300;28;20051;-77
2021/07/29 10:58:50;;;;;;;16.63;12.23;;;;;;;28.45;52.71;99838.59;4952180;28;20054;-77
2021/07/29 11:01:18;;;;;;;22.63;12.30;;;;;;;28.56;51.45;99832.66;4954369;28;20850;-78
2021/07/29 11:03:56;;;;;;;14.63;10.77;;;;;;;28.37;51.63;99822.69;4952972;28;20074;-78
2021/07/29 11:06:23;;;;;;;19.60;11.48;;;;;;;28.27;51.99;99820.38;4953019;28;20050;-79
2021/07/29 11:08:51;;;;;;;16.92;12.05;;;;;;;28.55;51.58;99822.97;4952466;28;20062;-78
2021/07/29 11:11:19;;;;;;;17.02;12.65;;;;;;;28.18;52.75;99827.78;4957305;28;20410;-77
2021/07/29 11:13:47;;;;;;;17.73;12.02;;;;;;;28.62;51.81;99822.97;4955437;28;20551;-79
2021/07/29 11:16:15;;;;;;;19.08;11.85;;;;;;;28.50;52.13;99817.38;4952841;28;20130;-77
2021/07/29 11:18:57;;;;;;;18.25;11.90;;;;;;;28.59;51.90;99818.00;4952932;28;20043;-76
2021/07/29 11:21:24;;;;;;;24.17;13.00;;;;;;;28.63;51.92;99822.75;4954650;28;20313;-76
2021/07/29 11:23:51;;;;;;;16.02;11.15;;;;;;;28.51;51.78;99812.84;4953743;28;20047;-75
2021/07/29 11:26:18;;;;;;;37.83;11.38;;;;;;;28.77;51.73;99812.88;4937067;28;20409;-77
2021/07/29 11:29:05;;;;;;;17.80;12.63;;;;;;;28.73;51.49;99810.78;4953471;28;20041;-78
2021/07/29 11:31:33;;;;;;;15.63;12.30;;;;;;;28.83;51.28;99801.31;4953430;28;20043;-78
2021/07/29 11:34:00;;;;;;;17.60;9.40;;;;;;;28.93;51.48;99799.06;4953550;28;20122;-76